Jellybean2 — WOAX980 — position and weather

sailwx.info

Track history (hours):
 
Tides and Currents Weather Stations Pressure Air Temp Water Temp Dewpoint Dewpoint Depression Visibility Wind Speed Wind Dir Waves Ship Positions

Jellybean2

Last reported at 2017-Sep-24 23:51 UTC. Time now 2017-Oct-19 00:21 UTC.
Position N 49°18' W 122°53'.
Warning: this ship's position is 24 days out of date.

Length 33 m; draft 2 m.

Type: Pleasure craft. MMSI: 338050648.

Date/timePositionNaut miles runAvg speedWind from/ knotsBaromVisibWave heightAir tempDewpointWater temp
2017-Sep-24 23:51N 49°18' W 122°53'2 7.1
2017-Sep-24 23:30N 49°19' W 122°56'4 7.9
2017-Sep-24 23:00N 49°22' W 122°53'2 3.9
2017-Sep-24 22:30N 49°21' W 122°54'510.5
2017-Sep-24 22:01N 49°18' W 123°01'611.2
2017-Sep-24 21:30N 49°19' W 123°09'3 5.9
2017-Sep-24 21:00N 49°16' W 123°07'0 0.2
2017-Sep-24 20:30N 49°16' W 123°07'0 0.0
2017-Sep-24 20:00N 49°16' W 123°07'0 0.0
2017-Sep-24 19:30N 49°16' W 123°07'0 0.0
2017-Sep-24 19:00N 49°16' W 123°07'0 0.0
2017-Sep-24 18:30N 49°16' W 123°07'0 0.0
2017-Sep-24 18:00N 49°16' W 123°07'0 0.0
2017-Sep-24 17:30N 49°16' W 123°07'0 0.0
2017-Sep-24 17:00N 49°16' W 123°07'0 0.0
2017-Sep-24 16:30N 49°16' W 123°07'0 0.0
2017-Sep-24 16:00N 49°16' W 123°07'0 0.0
2017-Sep-24 15:30N 49°16' W 123°07'0 0.0
2017-Sep-24 15:00N 49°16' W 123°07'0 0.0
2017-Sep-24 14:30N 49°16' W 123°07'0 0.0
2017-Sep-24 14:00N 49°16' W 123°07'0 0.0
2017-Sep-24 13:30N 49°16' W 123°07'0 0.0
2017-Sep-24 13:00N 49°16' W 123°07'0 0.0
2017-Sep-24 12:30N 49°16' W 123°07'0 0.0
2017-Sep-24 12:00N 49°16' W 123°07'0 0.0
2017-Sep-24 11:30N 49°16' W 123°07'0 0.0
2017-Sep-24 11:00N 49°16' W 123°07'0 0.0
2017-Sep-24 10:30N 49°16' W 123°07'0 0.0
2017-Sep-24 10:00N 49°16' W 123°07'0 0.0
2017-Sep-24 09:30N 49°16' W 123°07'0 0.0
2017-Sep-24 09:00N 49°16' W 123°07'0 0.0
2017-Sep-24 08:30N 49°16' W 123°07'0 0.0
2017-Sep-24 08:00N 49°16' W 123°07'0 0.0
2017-Sep-24 07:30N 49°16' W 123°07'0 0.0
2017-Sep-24 07:00N 49°16' W 123°07'0 0.0
2017-Sep-24 06:30N 49°16' W 123°07'0 0.0
2017-Sep-24 06:00N 49°16' W 123°07'0 0.0
2017-Sep-24 05:30N 49°16' W 123°07'0 0.0
2017-Sep-24 05:00N 49°16' W 123°07'0 0.0
2017-Sep-24 04:30N 49°16' W 123°07'0 0.0
2017-Sep-24 04:00N 49°16' W 123°07'0 0.0
2017-Sep-24 03:30N 49°16' W 123°07'0 0.0
2017-Sep-24 03:00N 49°16' W 123°07'0 0.0
2017-Sep-24 02:30N 49°16' W 123°07'0 0.0
2017-Sep-24 02:00N 49°16' W 123°07'0 0.0
2017-Sep-24 01:30N 49°16' W 123°07'0 0.0
2017-Sep-24 01:00N 49°16' W 123°07'0 0.0
2017-Sep-24 00:30N 49°16' W 123°07'0 0.0
2017-Sep-24 00:00N 49°16' W 123°07'0 0.0
2017-Sep-23 23:30N 49°16' W 123°07'0 0.0
2017-Sep-23 23:00N 49°16' W 123°07'0 0.0
2017-Sep-23 22:30N 49°16' W 123°07'0 0.0
2017-Sep-23 22:00N 49°16' W 123°07'0 0.0
2017-Sep-23 21:30N 49°16' W 123°07'0 0.0
2017-Sep-23 21:00N 49°16' W 123°07'0 0.0
2017-Sep-23 20:30N 49°16' W 123°07'0 0.0
2017-Sep-23 20:00N 49°16' W 123°07'  
2017-Sep-20 11:08N 49°18' W 122°53'0 0.0
2017-Sep-20 11:00N 49°18' W 122°53'0 0.0
2017-Sep-18 11:21N 49°18' W 122°53'0 0.0
2017-Sep-17 11:24N 49°18' W 122°53'0 0.0
2017-Sep-17 10:45N 49°18' W 122°53'  
Track history (hours):
 
Tides and Currents Weather Stations Pressure Air Temp Water Temp Dewpoint Dewpoint Depression Visibility Wind Speed Wind Dir Waves Ship Positions

Jellybean2

Last reported at 2017-Sep-24 23:51 UTC. Time now 2017-Oct-19 00:21 UTC.
Position N 49°18' W 122°53'.
Warning: this ship's position is 24 days out of date.

Length 33 m; draft 2 m.

Type: Pleasure craft. MMSI: 338050648.

Date/timePositionNaut miles runAvg speedWind from/ knotsBaromVisibWave heightAir tempDewpointWater temp
2017-Sep-24 23:51N 49°18' W 122°53'2 7.1
2017-Sep-24 23:30N 49°19' W 122°56'4 7.9
2017-Sep-24 23:00N 49°22' W 122°53'2 3.9
2017-Sep-24 22:30N 49°21' W 122°54'510.5
2017-Sep-24 22:01N 49°18' W 123°01'611.2
2017-Sep-24 21:30N 49°19' W 123°09'3 5.9
2017-Sep-24 21:00N 49°16' W 123°07'0 0.2
2017-Sep-24 20:30N 49°16' W 123°07'0 0.0
2017-Sep-24 20:00N 49°16' W 123°07'0 0.0
2017-Sep-24 19:30N 49°16' W 123°07'0 0.0
2017-Sep-24 19:00N 49°16' W 123°07'0 0.0
2017-Sep-24 18:30N 49°16' W 123°07'0 0.0
2017-Sep-24 18:00N 49°16' W 123°07'0 0.0
2017-Sep-24 17:30N 49°16' W 123°07'0 0.0
2017-Sep-24 17:00N 49°16' W 123°07'0 0.0
2017-Sep-24 16:30N 49°16' W 123°07'0 0.0
2017-Sep-24 16:00N 49°16' W 123°07'0 0.0
2017-Sep-24 15:30N 49°16' W 123°07'0 0.0
2017-Sep-24 15:00N 49°16' W 123°07'0 0.0
2017-Sep-24 14:30N 49°16' W 123°07'0 0.0
2017-Sep-24 14:00N 49°16' W 123°07'0 0.0
2017-Sep-24 13:30N 49°16' W 123°07'0 0.0
2017-Sep-24 13:00N 49°16' W 123°07'0 0.0
2017-Sep-24 12:30N 49°16' W 123°07'0 0.0
2017-Sep-24 12:00N 49°16' W 123°07'0 0.0
2017-Sep-24 11:30N 49°16' W 123°07'0 0.0
2017-Sep-24 11:00N 49°16' W 123°07'0 0.0
2017-Sep-24 10:30N 49°16' W 123°07'0 0.0
2017-Sep-24 10:00N 49°16' W 123°07'0 0.0
2017-Sep-24 09:30N 49°16' W 123°07'0 0.0
2017-Sep-24 09:00N 49°16' W 123°07'0 0.0
2017-Sep-24 08:30N 49°16' W 123°07'0 0.0
2017-Sep-24 08:00N 49°16' W 123°07'0 0.0
2017-Sep-24 07:30N 49°16' W 123°07'0 0.0
2017-Sep-24 07:00N 49°16' W 123°07'0 0.0
2017-Sep-24 06:30N 49°16' W 123°07'0 0.0
2017-Sep-24 06:00N 49°16' W 123°07'0 0.0
2017-Sep-24 05:30N 49°16' W 123°07'0 0.0
2017-Sep-24 05:00N 49°16' W 123°07'0 0.0
2017-Sep-24 04:30N 49°16' W 123°07'0 0.0
2017-Sep-24 04:00N 49°16' W 123°07'0 0.0
2017-Sep-24 03:30N 49°16' W 123°07'0 0.0
2017-Sep-24 03:00N 49°16' W 123°07'0 0.0
2017-Sep-24 02:30N 49°16' W 123°07'0 0.0
2017-Sep-24 02:00N 49°16' W 123°07'0 0.0
2017-Sep-24 01:30N 49°16' W 123°07'0 0.0
2017-Sep-24 01:00N 49°16' W 123°07'0 0.0
2017-Sep-24 00:30N 49°16' W 123°07'0 0.0
2017-Sep-24 00:00N 49°16' W 123°07'0 0.0
2017-Sep-23 23:30N 49°16' W 123°07'0 0.0
2017-Sep-23 23:00N 49°16' W 123°07'0 0.0
2017-Sep-23 22:30N 49°16' W 123°07'0 0.0
2017-Sep-23 22:00N 49°16' W 123°07'0 0.0
2017-Sep-23 21:30N 49°16' W 123°07'0 0.0
2017-Sep-23 21:00N 49°16' W 123°07'0 0.0
2017-Sep-23 20:30N 49°16' W 123°07'0 0.0
2017-Sep-23 20:00N 49°16' W 123°07'  
2017-Sep-20 11:08N 49°18' W 122°53'0 0.0
2017-Sep-20 11:00N 49°18' W 122°53'0 0.0
2017-Sep-18 11:21N 49°18' W 122°53'0 0.0
2017-Sep-17 11:24N 49°18' W 122°53'0 0.0
2017-Sep-17 10:45N 49°18' W 122°53'  

Dump ship's entire track history